Time;durP1;ratioP1;P1;durP2;ratioP2;P2;SDS_P1;SDS_P2;PMS_P1;PMS_P2;Temp;Humidity;BMP_temperature;BMP_pressure;BME280_temperature;BME280_humidity;BME280_pressure;Samples;Min_cycle;Max_cycle;Signal;HPM_P1;HPM_P2
2022/07/07 00:02:44;;;;;;;4.03;2.00;;;17.70;70.10;;;;;;10342339;28;20233;-65
2022/07/07 00:07:45;;;;;;;2.47;1.87;;;17.70;70.30;;;;;;10334141;28;20303;-66
2022/07/07 00:12:45;;;;;;;3.23;1.70;;;17.60;70.40;;;;;;10323295;28;20763;-65
2022/07/07 00:17:46;;;;;;;2.80;1.50;;;17.60;70.60;;;;;;10347519;28;20604;-65
2022/07/07 00:22:47;;;;;;;2.77;1.67;;;17.60;70.90;;;;;;10333233;28;20838;-65
2022/07/07 00:27:47;;;;;;;2.70;1.53;;;17.50;70.90;;;;;;10344343;28;20221;-64
2022/07/07 00:32:48;;;;;;;2.67;1.60;;;17.60;71.00;;;;;;10342463;28;20653;-65
2022/07/07 00:37:48;;;;;;;3.27;1.73;;;17.50;71.00;;;;;;10343521;28;20233;-66
2022/07/07 00:42:52;;;;;;;5.47;1.90;;;17.50;71.40;;;;;;10332626;28;20379;-66
2022/07/07 00:47:53;;;;;;;7.97;1.87;;;17.50;71.60;;;;;;10342888;28;20778;-65
2022/07/07 00:52:53;;;;;;;4.00;1.80;;;17.50;71.70;;;;;;10342752;28;20221;-66
2022/07/07 00:57:54;;;;;;;4.47;1.73;;;17.40;72.00;;;;;;10343634;28;20585;-65
2022/07/07 01:02:55;;;;;;;8.27;2.00;;;17.40;72.50;;;;;;10337050;28;20223;-66
2022/07/07 01:07:56;;;;;;;3.87;1.73;;;17.30;73.30;;;;;;10344927;28;20272;-65
2022/07/07 01:13:02;;;;;;;4.13;2.10;;;17.30;74.30;;;;;;10357550;28;20665;-65
2022/07/07 01:18:03;;;;;;;4.33;2.20;;;17.20;75.10;;;;;;10331281;28;20295;-64
2022/07/07 01:23:04;;;;;;;3.77;2.17;;;17.10;75.50;;;;;;10344923;28;20223;-65
2022/07/07 01:28:05;;;;;;;3.63;2.33;;;17.10;75.70;;;;;;10344762;28;20222;-66
2022/07/07 01:33:05;;;;;;;2.63;2.10;;;17.10;76.00;;;;;;10339038;28;20217;-65
2022/07/07 01:38:06;;;;;;;2.70;2.30;;;17.10;76.20;;;;;;10342177;28;20236;-66
2022/07/07 01:43:07;;;;;;;2.77;2.40;;;17.10;76.10;;;;;;10344433;28;20269;-66
2022/07/07 01:48:07;;;;;;;5.17;2.70;;;17.10;76.40;;;;;;10322000;28;20241;-67
2022/07/07 01:53:36;;;;;;;3.10;2.13;;;17.10;76.40;;;;;;10345341;28;20379;-66
2022/07/07 01:58:37;;;;;;;5.90;2.40;;;17.20;76.50;;;;;;10321004;28;20242;-67
2022/07/07 02:03:37;;;;;;;3.27;2.07;;;17.20;76.00;;;;;;10344912;28;20248;-67
2022/07/07 02:08:38;;;;;;;10.73;2.27;;;17.20;76.30;;;;;;10347084;28;20249;-65
2022/07/07 02:13:52;;;;;;;3.73;2.40;;;17.20;76.30;;;;;;10351673;28;20217;-65
2022/07/07 02:18:55;;;;;;;3.53;2.03;;;17.20;76.10;;;;;;10343554;28;20726;-64
2022/07/07 02:23:56;;;;;;;5.13;2.10;;;17.20;75.90;;;;;;10323299;28;20231;-65
2022/07/07 02:28:57;;;;;;;7.83;2.20;;;17.20;75.80;;;;;;10323261;28;20667;-65
2022/07/07 02:33:58;;;;;;;5.33;2.03;;;17.20;75.70;;;;;;10340859;28;20320;-66
2022/07/07 02:38:58;;;;;;;7.47;2.20;;;17.20;75.70;;;;;;10333182;28;20240;-65
2022/07/07 02:43:59;;;;;;;5.93;1.90;;;17.20;75.70;;;;;;10339038;28;20227;-64
2022/07/07 02:49:03;;;;;;;4.73;2.30;;;17.20;75.90;;;;;;10337162;28;20708;-65
2022/07/07 02:54:04;;;;;;;3.03;2.50;;;17.20;76.00;;;;;;10343930;28;20249;-66
2022/07/07 02:59:05;;;;;;;6.63;2.10;;;17.20;76.00;;;;;;10335149;28;20228;-64
2022/07/07 03:04:05;;;;;;;2.37;2.10;;;17.20;76.00;;;;;;10336475;28;20629;-65
2022/07/07 03:09:06;;;;;;;5.00;2.23;;;17.20;76.20;;;;;;10353521;28;20348;-65
2022/07/07 03:14:07;;;;;;;5.27;2.13;;;17.20;76.10;;;;;;10328961;28;20724;-65
2022/07/07 03:19:08;;;;;;;5.07;2.17;;;17.20;76.40;;;;;;10343240;28;20219;-65
2022/07/07 03:24:08;;;;;;;5.13;2.17;;;17.20;76.40;;;;;;10321915;28;20313;-66
2022/07/07 03:29:09;;;;;;;3.70;2.37;;;17.30;76.40;;;;;;10348437;28;20310;-66
2022/07/07 03:34:09;;;;;;;4.47;2.10;;;17.30;76.40;;;;;;10340292;28;20230;-66
2022/07/07 03:39:10;;;;;;;3.33;2.20;;;17.40;76.40;;;;;;10331817;28;20242;-65
2022/07/07 03:44:11;;;;;;;3.57;2.03;;;17.50;76.50;;;;;;10344179;28;20308;-65
2022/07/07 03:49:11;;;;;;;5.83;2.03;;;17.50;77.30;;;;;;10345319;28;20286;-64
2022/07/07 03:54:12;;;;;;;4.17;2.20;;;17.50;76.80;;;;;;10329225;28;20233;-64
2022/07/07 03:59:13;;;;;;;2.40;2.03;;;17.50;77.00;;;;;;10342637;28;20239;-64
2022/07/07 04:04:15;;;;;;;2.77;1.90;;;17.50;77.30;;;;;;10332725;28;20399;-64
2022/07/07 04:09:15;;;;;;;3.13;1.90;;;17.70;77.40;;;;;;10343513;28;20575;-63
2022/07/07 04:14:16;;;;;;;3.20;2.07;;;17.70;77.30;;;;;;10329403;28;20221;-64
2022/07/07 04:19:16;;;;;;;3.23;2.13;;;17.90;76.40;;;;;;10339035;28;20227;-64
2022/07/07 04:24:17;;;;;;;3.50;2.00;;;17.90;76.30;;;;;;10340328;28;20591;-63
2022/07/07 04:29:18;;;;;;;6.00;2.17;;;18.00;76.40;;;;;;10346713;28;20905;-63
2022/07/07 04:34:19;;;;;;;4.00;2.10;;;18.10;76.10;;;;;;10333702;28;20644;-63
2022/07/07 04:39:20;;;;;;;11.70;3.07;;;18.10;75.80;;;;;;10334879;28;20220;-63
2022/07/07 04:44:20;;;;;;;3.63;1.90;;;18.10;76.10;;;;;;10333707;28;20422;-65
2022/07/07 04:49:21;;;;;;;3.53;1.70;;;18.20;75.60;;;;;;10342202;28;20703;-65
2022/07/07 04:54:22;;;;;;;8.47;2.23;;;18.00;75.80;;;;;;10345448;28;20244;-65
2022/07/07 04:59:22;;;;;;;4.03;1.80;;;18.00;76.40;;;;;;10351400;28;20243;-66
2022/07/07 05:04:23;;;;;;;3.70;2.20;;;18.10;76.60;;;;;;10330267;28;20224;-67
2022/07/07 05:09:24;;;;;;;3.30;1.80;;;18.10;76.30;;;;;;10333660;28;20268;-66
2022/07/07 05:14:25;;;;;;;3.37;2.07;;;18.10;76.60;;;;;;10340404;28;20278;-66
2022/07/07 05:19:26;;;;;;;2.57;1.70;;;18.20;76.30;;;;;;10356450;28;20266;-66
2022/07/07 05:24:27;;;;;;;3.27;2.10;;;18.30;76.00;;;;;;10324205;28;20227;-68
2022/07/07 05:29:28;;;;;;;6.40;2.10;;;18.60;76.20;;;;;;10339186;28;20303;-67
2022/07/07 05:34:28;;;;;;;3.20;1.70;;;19.30;73.70;;;;;;10350692;28;20218;-67
2022/07/07 05:39:30;;;;;;;5.00;2.37;;;19.40;73.30;;;;;;10355785;28;20215;-67
2022/07/07 05:44:31;;;;;;;4.23;1.87;;;19.30;73.40;;;;;;10349136;28;20229;-67
2022/07/07 05:49:31;;;;;;;3.50;1.77;;;19.80;72.50;;;;;;10350692;28;20220;-67
2022/07/07 05:54:32;;;;;;;3.63;1.53;;;20.90;69.60;;;;;;10356486;28;20221;-67
2022/07/07 05:59:33;;;;;;;4.23;1.80;;;21.40;66.30;;;;;;10359042;28;20236;-68
2022/07/07 06:04:33;;;;;;;4.43;2.10;;;20.70;68.30;;;;;;10351277;28;20218;-66
2022/07/07 06:09:34;;;;;;;4.27;2.70;;;20.10;70.70;;;;;;10359989;28;20684;-66
2022/07/07 06:14:35;;;;;;;4.60;1.90;;;19.80;72.90;;;;;;10347749;28;20225;-67
2022/07/07 06:19:35;;;;;;;4.53;1.97;;;19.50;73.70;;;;;;10355292;28;20751;-67
2022/07/07 06:24:36;;;;;;;3.67;1.83;;;19.30;75.30;;;;;;10337434;28;20214;-67
2022/07/07 06:29:37;;;;;;;3.13;1.93;;;19.20;76.10;;;;;;10348926;28;20210;-67
2022/07/07 06:34:37;;;;;;;7.03;2.60;;;19.10;76.70;;;;;;10349530;28;20225;-68
2022/07/07 06:39:38;;;;;;;6.37;2.77;;;19.00;77.90;;;;;;10338101;28;20659;-67
2022/07/07 06:44:38;;;;;;;10.00;2.40;;;19.00;78.50;;;;;;10348960;28;20240;-67
2022/07/07 06:49:39;;;;;;;5.97;2.10;;;19.00;79.20;;;;;;10351157;28;20221;-69
2022/07/07 06:54:42;;;;;;;8.37;2.30;;;19.10;79.60;;;;;;10357934;28;20892;-67
2022/07/07 06:59:43;;;;;;;7.87;2.30;;;19.10;79.80;;;;;;10351390;28;20284;-68
2022/07/07 07:04:44;;;;;;;3.77;1.83;;;19.20;79.70;;;;;;10353715;28;20233;-67
2022/07/07 07:09:45;;;;;;;4.67;2.10;;;19.20;80.30;;;;;;10353172;28;20213;-67
2022/07/07 07:14:48;;;;;;;6.73;2.30;;;19.20;80.50;;;;;;10347005;28;20268;-67
2022/07/07 07:19:49;;;;;;;4.73;2.00;;;19.20;81.20;;;;;;10352310;28;20237;-67
2022/07/07 07:24:49;;;;;;;4.17;2.43;;;19.40;81.30;;;;;;10339885;28;20237;-68
2022/07/07 07:29:50;;;;;;;7.23;2.10;;;19.90;79.70;;;;;;10348500;28;20657;-68
2022/07/07 07:34:54;;;;;;;2.07;1.77;;;20.40;77.90;;;;;;10347472;28;20306;-67
2022/07/07 07:39:54;;;;;;;10.13;2.23;;;20.50;77.30;;;;;;10350876;28;20265;-68
2022/07/07 07:45:10;;;;;;;6.20;2.33;;;20.50;77.60;;;;;;10353369;28;20272;-67
2022/07/07 07:50:13;;;;;;;7.40;2.40;;;20.80;77.50;;;;;;10349525;28;20770;-67
2022/07/07 07:55:16;;;;;;;4.90;2.20;;;21.10;76.20;;;;;;10354252;28;20787;-68
2022/07/07 08:00:19;;;;;;;4.93;1.90;;;21.10;76.40;;;;;;10349044;28;20285;-67
2022/07/07 08:05:19;;;;;;;3.73;1.93;;;21.10;76.80;;;;;;10331768;28;20190;-66
2022/07/07 08:10:20;;;;;;;5.47;2.60;;;21.10;77.10;;;;;;10351666;28;20174;-67
2022/07/07 08:15:20;;;;;;;5.13;2.20;;;21.00;77.50;;;;;;10345103;28;20247;-67
2022/07/07 08:20:21;;;;;;;5.57;1.73;;;20.90;78.60;;;;;;10329037;28;20178;-67
2022/07/07 08:25:22;;;;;;;5.67;2.30;;;21.10;78.50;;;;;;10350212;28;20256;-66
2022/07/07 08:30:22;;;;;;;9.90;2.33;;;22.00;76.00;;;;;;10347104;28;20193;-67
2022/07/07 08:35:23;;;;;;;5.87;1.80;;;23.30;72.00;;;;;;10339146;28;20209;-68
2022/07/07 08:40:24;;;;;;;9.53;2.30;;;25.80;65.40;;;;;;10343565;28;20218;-66
2022/07/07 08:45:25;;;;;;;4.57;2.07;;;28.70;56.00;;;;;;10343631;28;20216;-67
2022/07/07 08:50:26;;;;;;;4.23;1.80;;;28.90;54.50;;;;;;10352540;28;20216;-67
2022/07/07 08:55:30;;;;;;;2.30;1.70;;;28.30;55.80;;;;;;10350169;28;20236;-67
2022/07/07 09:00:31;;;;;;;3.83;1.63;;;28.90;55.30;;;;;;10344567;28;20237;-67
2022/07/07 09:05:39;;;;;;;7.63;2.40;;;28.50;55.00;;;;;;10350128;28;20673;-66
2022/07/07 09:10:44;;;;;;;8.27;1.93;;;26.60;59.00;;;;;;10343770;28;20225;-66
2022/07/07 09:15:45;;;;;;;5.97;1.87;;;25.20;63.40;;;;;;10344377;28;20246;-68
2022/07/07 09:20:45;;;;;;;2.50;1.37;;;24.20;68.30;;;;;;10354335;28;20214;-66
2022/07/07 09:25:46;;;;;;;2.33;1.63;;;23.60;70.80;;;;;;10357810;28;20685;-68
2022/07/07 09:30:48;;;;;;;2.60;1.33;;;23.30;72.50;;;;;;10363153;28;20218;-67
2022/07/07 09:41:13;;;;;;;1.97;1.40;;;22.70;75.70;;;;;;10360243;28;20310;-67
2022/07/07 09:46:17;;;;;;;4.40;1.60;;;22.40;77.60;;;;;;10352730;28;20218;-67
2022/07/07 09:51:30;;;;;;;4.67;1.40;;;22.40;78.40;;;;;;10355917;28;20311;-66
2022/07/07 09:56:39;;;;;;;1.73;1.20;;;22.30;84.40;;;;;;10367548;28;20357;-67
2022/07/07 10:01:43;;;;;;;3.90;1.80;;;21.60;86.80;;;;;;10351648;28;20732;-67
2022/07/07 10:06:44;;;;;;;3.77;1.33;;;21.20;87.90;;;;;;10362147;28;20225;-66
2022/07/07 10:11:48;;;;;;;1.90;1.07;;;21.00;88.70;;;;;;10350834;28;20348;-66
2022/07/07 10:16:51;;;;;;;1.83;1.37;;;20.90;89.40;;;;;;10354512;28;20229;-66
2022/07/07 10:21:54;;;;;;;3.63;1.57;;;20.90;90.60;;;;;;10358796;28;20284;-67
2022/07/07 10:26:57;;;;;;;29.00;2.40;;;20.90;91.50;;;;;;10354453;28;20218;-66
2022/07/07 10:31:58;;;;;;;19.03;2.40;;;21.20;92.70;;;;;;10355583;28;20230;-66
2022/07/07 10:37:01;;;;;;;3.00;1.20;;;21.50;92.50;;;;;;10329468;28;20230;-66
2022/07/07 10:42:06;;;;;;;2.27;1.00;;;22.10;90.90;;;;;;10347235;28;20230;-67
2022/07/07 10:47:16;;;;;;;2.30;1.10;;;23.00;87.70;;;;;;10351277;28;20226;-66
2022/07/07 10:52:17;;;;;;;2.03;0.97;;;23.90;82.90;;;;;;10357154;28;20218;-66
2022/07/07 10:57:23;;;;;;;1.03;0.93;;;24.40;79.20;;;;;;10349085;28;20225;-66
2022/07/07 11:02:32;;;;;;;2.13;1.30;;;24.50;76.60;;;;;;10346582;28;20247;-67
2022/07/07 11:07:32;;;;;;;1.97;1.37;;;24.30;75.10;;;;;;10354507;28;20258;-67
2022/07/07 11:12:39;;;;;;;3.43;1.10;;;24.20;75.10;;;;;;10347131;28;20247;-66
2022/07/07 11:17:48;;;;;;;3.50;0.93;;;24.50;73.20;;;;;;10346838;28;20213;-68
2022/07/07 11:22:51;;;;;;;9.00;1.30;;;23.90;75.30;;;;;;10359761;28;20306;-68
2022/07/07 11:27:56;;;;;;;3.33;1.03;;;22.90;80.00;;;;;;10354933;28;20316;-66
2022/07/07 11:32:58;;;;;;;8.87;0.90;;;22.10;84.90;;;;;;10333724;28;20221;-66
2022/07/07 11:37:59;;;;;;;7.80;1.00;;;21.30;79.30;;;;;;10326810;28;20253;-66
2022/07/07 11:43:00;;;;;;;5.67;0.63;;;21.20;80.20;;;;;;10350663;28;20245;-66
2022/07/07 11:48:03;;;;;;;2.07;0.40;;;21.50;80.80;;;;;;10353712;28;20221;-67
2022/07/07 11:53:07;;;;;;;0.93;0.40;;;22.80;74.10;;;;;;10348728;28;20229;-67
2022/07/07 11:58:09;;;;;;;2.43;0.60;;;23.80;69.10;;;;;;10351314;28;20234;-66
2022/07/07 12:03:10;;;;;;;3.23;0.70;;;24.50;66.60;;;;;;10350517;28;20628;-67
2022/07/07 12:08:13;;;;;;;5.97;0.40;;;25.00;65.40;;;;;;10343947;28;20228;-67
2022/07/07 12:13:14;;;;;;;2.33;0.50;;;25.20;63.50;;;;;;10348975;28;20249;-67
2022/07/07 12:18:31;;;;;;;3.43;0.63;;;25.40;59.90;;;;;;10318165;28;20316;-67
2022/07/07 12:23:44;;;;;;;11.33;1.30;;;25.40;59.80;;;;;;10352378;28;20217;-67
2022/07/07 12:28:46;;;;;;;2.40;0.87;;;24.90;63.40;;;;;;10339107;28;20702;-66
2022/07/07 12:33:47;;;;;;;11.97;1.07;;;24.80;66.40;;;;;;10348445;28;20214;-67
2022/07/07 12:38:51;;;;;;;4.07;1.00;;;24.80;66.50;;;;;;10349883;28;20225;-66
2022/07/07 12:43:54;;;;;;;4.27;1.00;;;24.50;67.20;;;;;;10346198;28;20249;-66
2022/07/07 12:48:55;;;;;;;3.97;0.80;;;23.60;70.40;;;;;;10322723;28;20215;-67
2022/07/07 12:53:57;;;;;;;1.33;0.60;;;23.40;71.80;;;;;;10351604;28;20305;-66
2022/07/07 12:58:58;;;;;;;0.67;0.60;;;24.00;69.80;;;;;;10346931;28;20667;-66
2022/07/07 13:03:59;;;;;;;1.83;0.90;;;24.10;68.70;;;;;;10355209;28;20338;-67
2022/07/07 13:09:00;;;;;;;3.60;1.30;;;24.00;67.60;;;;;;10359203;28;20226;-67
2022/07/07 13:14:00;;;;;;;7.13;1.60;;;24.10;65.60;;;;;;10331262;28;20645;-66
2022/07/07 13:19:02;;;;;;;2.63;1.43;;;24.30;65.20;;;;;;10355898;28;20597;-66
2022/07/07 13:24:06;;;;;;;2.03;1.30;;;24.10;66.80;;;;;;10358906;28;20272;-67
2022/07/07 13:29:06;;;;;;;3.10;1.30;;;24.20;67.70;;;;;;10354223;28;20217;-66
2022/07/07 13:34:07;;;;;;;4.23;1.03;;;23.70;69.00;;;;;;10355894;28;20213;-67
2022/07/07 13:39:08;;;;;;;2.00;1.03;;;23.10;71.90;;;;;;10355648;28;20307;-66
2022/07/07 13:44:08;;;;;;;2.57;1.13;;;22.90;73.40;;;;;;10352704;28;20214;-67
2022/07/07 13:49:09;;;;;;;7.00;0.80;;;22.80;74.30;;;;;;10349178;28;20221;-66
2022/07/07 13:54:10;;;;;;;3.27;1.07;;;22.90;73.90;;;;;;10354286;28;20305;-67
2022/07/07 13:59:14;;;;;;;2.47;0.80;;;22.90;73.80;;;;;;10355571;28;20240;-67
2022/07/07 14:04:15;;;;;;;1.13;0.80;;;22.60;74.70;;;;;;10338621;28;20295;-67
2022/07/07 14:09:16;;;;;;;1.23;0.83;;;22.70;75.70;;;;;;10349014;28;20253;-66
2022/07/07 14:14:17;;;;;;;1.43;0.60;;;23.10;73.70;;;;;;10351575;28;20224;-67
2022/07/07 14:19:17;;;;;;;7.33;2.07;;;23.50;72.80;;;;;;10347069;28;20225;-68
2022/07/07 14:24:18;;;;;;;4.00;1.27;;;23.60;72.40;;;;;;10345895;28;20225;-66
2022/07/07 14:29:19;;;;;;;3.20;0.80;;;23.30;69.90;;;;;;10345967;28;20596;-67
2022/07/07 14:34:20;;;;;;;7.87;6.27;;;23.10;71.50;;;;;;10350464;28;20253;-67
2022/07/07 14:39:20;;;;;;;6.57;2.93;;;22.90;71.70;;;;;;10358348;28;20237;-67
2022/07/07 14:44:21;;;;;;;2.20;0.90;;;22.70;72.40;;;;;;10347539;28;20308;-66
2022/07/07 14:49:22;;;;;;;3.93;1.00;;;22.50;73.10;;;;;;10367110;28;20323;-67
2022/07/07 14:54:23;;;;;;;6.10;1.30;;;22.50;73.60;;;;;;10349358;28;20232;-67
2022/07/07 14:59:24;;;;;;;3.43;1.10;;;22.50;73.50;;;;;;10311150;28;1138631;-66
2022/07/07 15:04:25;;;;;;;9.30;1.40;;;22.50;73.90;;;;;;10354409;28;20609;-66
2022/07/07 15:09:25;;;;;;;4.07;1.50;;;22.70;73.80;;;;;;10356277;28;20696;-67
2022/07/07 15:14:26;;;;;;;3.80;0.73;;;22.60;74.40;;;;;;10347435;28;20248;-66
2022/07/07 15:19:27;;;;;;;3.23;0.80;;;22.10;75.80;;;;;;10352277;28;20239;-66
2022/07/07 15:24:27;;;;;;;2.87;1.00;;;21.60;79.40;;;;;;10353336;28;20219;-68
2022/07/07 15:29:28;;;;;;;5.13;0.90;;;21.10;81.80;;;;;;10323889;28;20592;-66
2022/07/07 15:34:28;;;;;;;3.70;0.80;;;20.90;82.70;;;;;;10351458;28;20626;-67
2022/07/07 15:39:29;;;;;;;3.70;1.00;;;20.80;83.60;;;;;;10345574;28;20713;-67
2022/07/07 15:44:30;;;;;;;2.80;0.80;;;21.00;84.40;;;;;;10324280;28;20904;-67
2022/07/07 15:49:33;;;;;;;4.83;1.20;;;21.10;83.10;;;;;;10352513;28;20308;-67
2022/07/07 15:54:34;;;;;;;1.40;0.77;;;21.30;83.10;;;;;;10344660;28;20225;-67
2022/07/07 15:59:36;;;;;;;2.60;0.90;;;21.50;82.30;;;;;;10353306;28;20229;-66
2022/07/07 16:04:38;;;;;;;9.10;1.43;;;21.50;82.10;;;;;;10345598;28;20260;-68
2022/07/07 16:09:42;;;;;;;3.07;0.87;;;21.20;83.20;;;;;;10344145;28;20308;-66
2022/07/07 16:14:44;;;;;;;0.93;0.67;;;21.10;83.90;;;;;;10350897;28;20304;-67
2022/07/07 16:19:44;;;;;;;0.77;0.70;;;21.00;84.50;;;;;;10339146;28;20699;-67
2022/07/07 16:24:45;;;;;;;2.20;1.13;;;20.90;84.80;;;;;;10345740;28;20304;-67
2022/07/07 16:29:46;;;;;;;2.03;1.20;;;20.80;84.80;;;;;;10345243;28;20216;-67
2022/07/07 16:34:46;;;;;;;4.23;1.60;;;20.60;85.60;;;;;;10343438;28;20587;-67
2022/07/07 16:39:47;;;;;;;1.40;1.17;;;20.50;86.30;;;;;;10336544;28;20586;-67
2022/07/07 16:44:48;;;;;;;2.40;1.27;;;20.60;86.80;;;;;;10321770;28;20218;-67
2022/07/07 16:49:48;;;;;;;8.33;1.60;;;20.70;86.40;;;;;;10325732;28;20296;-67
2022/07/07 16:54:49;;;;;;;3.67;0.77;;;20.80;86.30;;;;;;10334179;28;20300;-67
2022/07/07 16:59:49;;;;;;;3.30;1.20;;;20.80;86.80;;;;;;10335432;28;20233;-67
2022/07/07 17:04:50;;;;;;;8.13;1.07;;;20.80;86.80;;;;;;10329376;28;20213;-67
2022/07/07 17:09:51;;;;;;;2.27;1.37;;;20.90;87.10;;;;;;10332699;28;20859;-66
2022/07/07 17:14:51;;;;;;;2.47;0.90;;;20.90;86.70;;;;;;10334460;28;20442;-67
2022/07/07 17:19:52;;;;;;;2.27;1.00;;;21.00;86.30;;;;;;10329596;28;20719;-68
2022/07/07 17:24:52;;;;;;;2.40;1.07;;;21.00;85.30;;;;;;10332954;28;20210;-67
2022/07/07 17:29:53;;;;;;;1.47;1.00;;;20.90;85.80;;;;;;10333465;28;20828;-66
2022/07/07 17:34:54;;;;;;;2.67;1.37;;;20.90;86.20;;;;;;10317398;28;20337;-67
2022/07/07 17:39:55;;;;;;;2.73;1.10;;;20.70;86.80;;;;;;10326233;28;20228;-67
2022/07/07 17:44:55;;;;;;;2.27;1.20;;;20.70;87.30;;;;;;10324632;28;20309;-66
2022/07/07 17:49:56;;;;;;;3.00;1.20;;;20.80;87.20;;;;;;10321992;28;20296;-67
2022/07/07 17:54:56;;;;;;;1.93;1.10;;;20.80;87.40;;;;;;10340822;28;20217;-66
2022/07/07 17:59:57;;;;;;;2.73;1.10;;;20.80;87.60;;;;;;10334248;28;20213;-67
2022/07/07 18:04:58;;;;;;;2.50;1.10;;;20.80;87.30;;;;;;10329600;28;20886;-66
2022/07/07 18:09:58;;;;;;;4.00;1.37;;;20.70;87.90;;;;;;10340234;28;20217;-67
2022/07/07 18:14:59;;;;;;;4.27;1.10;;;20.60;88.90;;;;;;10339441;28;20222;-67
2022/07/07 18:20:00;;;;;;;1.60;1.00;;;20.60;89.10;;;;;;10338464;28;20225;-67
2022/07/07 18:25:00;;;;;;;2.20;1.30;;;20.60;89.20;;;;;;10329191;28;20313;-66
2022/07/07 18:30:03;;;;;;;1.50;0.93;;;20.60;88.70;;;;;;10338233;28;20748;-66
2022/07/07 18:35:04;;;;;;;1.63;0.90;;;20.60;88.80;;;;;;10334340;28;20218;-67
2022/07/07 18:40:08;;;;;;;2.20;1.00;;;20.40;89.20;;;;;;10340821;28;20264;-67
2022/07/07 18:45:09;;;;;;;2.97;1.17;;;20.40;89.10;;;;;;10325624;28;20223;-65
2022/07/07 18:50:10;;;;;;;1.30;1.03;;;20.30;89.60;;;;;;10316332;28;20219;-65
2022/07/07 18:55:11;;;;;;;2.37;1.23;;;20.10;90.20;;;;;;10320756;28;20559;-66
2022/07/07 19:00:12;;;;;;;2.10;1.53;;;20.10;90.60;;;;;;10342308;28;20202;-67
2022/07/07 19:05:12;;;;;;;3.57;1.37;;;19.90;91.20;;;;;;10326057;28;20189;-67
2022/07/07 19:10:14;;;;;;;3.07;1.63;;;19.90;91.90;;;;;;10346613;28;20259;-66
2022/07/07 19:15:15;;;;;;;2.30;1.30;;;19.80;92.50;;;;;;10338277;28;20217;-66
2022/07/07 19:20:16;;;;;;;1.87;1.30;;;19.70;93.00;;;;;;10323072;28;20194;-66
2022/07/07 19:25:16;;;;;;;4.87;1.50;;;19.60;93.40;;;;;;10321709;28;20722;-67
2022/07/07 19:30:17;;;;;;;5.27;1.97;;;19.60;94.00;;;;;;10335682;28;20201;-66
2022/07/07 19:35:18;;;;;;;4.30;1.57;;;19.50;94.50;;;;;;10322109;28;20243;-66
2022/07/07 19:40:19;;;;;;;3.33;1.60;;;19.30;95.20;;;;;;10327794;28;20200;-65
2022/07/07 19:45:21;;;;;;;2.60;1.40;;;19.20;96.20;;;;;;10325672;28;20202;-66
2022/07/07 19:50:25;;;;;;;5.50;1.43;;;19.10;96.90;;;;;;10320586;28;20685;-66
2022/07/07 19:55:29;;;;;;;4.57;1.37;;;19.20;97.40;;;;;;10335705;28;20336;-66
2022/07/07 20:00:30;;;;;;;2.80;1.50;;;19.10;97.80;;;;;;10335629;28;20714;-67
2022/07/07 20:05:31;;;;;;;3.20;1.50;;;19.20;98.00;;;;;;10310505;28;20231;-67
2022/07/07 20:10:32;;;;;;;3.90;1.70;;;19.10;98.00;;;;;;10325960;28;20231;-67
2022/07/07 20:15:33;;;;;;;3.80;1.60;;;19.10;98.30;;;;;;10328308;28;20715;-65
2022/07/07 20:20:35;;;;;;;3.80;1.40;;;19.10;98.10;;;;;;10323790;28;20279;-66
2022/07/07 20:25:35;;;;;;;5.67;1.70;;;19.00;98.10;;;;;;10323366;28;20237;-66
2022/07/07 20:30:36;;;;;;;5.17;1.60;;;18.90;98.30;;;;;;10326922;28;20224;-67
2022/07/07 20:35:37;;;;;;;3.93;1.63;;;18.80;98.40;;;;;;10323844;28;20244;-67
2022/07/07 20:40:37;;;;;;;5.67;1.83;;;18.70;98.60;;;;;;10333894;28;20224;-66
2022/07/07 20:45:38;;;;;;;4.90;1.70;;;18.60;96.90;;;;;;10332132;28;20278;-67
2022/07/07 20:50:38;;;;;;;5.77;1.60;;;18.50;96.00;;;;;;10336542;28;20255;-66
2022/07/07 20:55:39;;;;;;;6.93;1.97;;;18.40;96.10;;;;;;10319740;28;20243;-66
2022/07/07 21:00:40;;;;;;;6.57;1.67;;;18.30;96.00;;;;;;10334878;28;20227;-65
2022/07/07 21:05:44;;;;;;;4.90;1.90;;;18.10;95.50;;;;;;10336002;28;20320;-65
2022/07/07 21:10:45;;;;;;;5.60;1.63;;;18.00;95.40;;;;;;10339699;28;20663;-64
2022/07/07 21:15:48;;;;;;;7.33;1.93;;;17.90;95.40;;;;;;10331806;28;20317;-64
2022/07/07 21:20:48;;;;;;;5.97;2.20;;;17.80;95.30;;;;;;10340585;28;20314;-65
2022/07/07 21:25:49;;;;;;;6.57;2.00;;;17.70;95.40;;;;;;10354508;28;20313;-65
2022/07/07 21:30:49;;;;;;;7.60;2.03;;;17.60;95.70;;;;;;10353340;28;20598;-66
2022/07/07 21:35:50;;;;;;;6.73;1.80;;;17.50;96.10;;;;;;10333515;28;20603;-65
2022/07/07 21:40:51;;;;;;;7.93;2.03;;;17.40;96.50;;;;;;10341625;28;20653;-65
2022/07/07 21:45:52;;;;;;;10.63;2.37;;;17.30;97.10;;;;;;10352057;28;20234;-65
2022/07/07 21:50:54;;;;;;;5.00;1.70;;;17.20;97.70;;;;;;10323222;28;20229;-65
2022/07/07 21:55:55;;;;;;;7.37;2.10;;;17.10;98.00;;;;;;10334612;28;20240;-65
2022/07/07 22:00:57;;;;;;;7.17;2.13;;;16.90;98.30;;;;;;10341299;28;20236;-66
2022/07/07 22:11:17;;;;;;;7.27;2.13;;;16.70;97.70;;;;;;10349639;28;20227;-65
2022/07/07 22:16:17;;;;;;;6.60;2.23;;;16.70;96.50;;;;;;10349687;28;20721;-66
2022/07/07 22:21:18;;;;;;;8.23;2.20;;;16.60;96.20;;;;;;10346741;28;20241;-65
2022/07/07 22:26:18;;;;;;;4.43;1.90;;;16.60;95.90;;;;;;10316305;28;20235;-65
2022/07/07 22:31:19;;;;;;;7.43;2.30;;;16.40;95.50;;;;;;10352648;28;20700;-65
2022/07/07 22:36:20;;;;;;;9.67;2.23;;;16.40;95.80;;;;;;10354330;28;20231;-65
2022/07/07 22:41:20;;;;;;;7.67;2.10;;;16.30;96.00;;;;;;10331319;28;20673;-65
2022/07/07 22:46:21;;;;;;;7.57;2.03;;;16.10;96.30;;;;;;10339408;28;20282;-67
2022/07/07 22:51:22;;;;;;;11.13;2.40;;;16.00;96.60;;;;;;10331011;28;20217;-64
2022/07/07 22:56:22;;;;;;;6.23;2.00;;;15.90;96.80;;;;;;10332960;28;20736;-65
2022/07/07 23:01:23;;;;;;;8.27;2.23;;;15.90;97.20;;;;;;10336827;28;20216;-65
2022/07/07 23:06:24;;;;;;;10.67;2.20;;;15.80;97.40;;;;;;10343109;28;20231;-65
2022/07/07 23:11:24;;;;;;;10.93;2.27;;;15.70;97.50;;;;;;10343225;28;20226;-66
2022/07/07 23:16:26;;;;;;;8.23;2.43;;;15.60;97.80;;;;;;10337167;28;20269;-66
2022/07/07 23:21:28;;;;;;;7.90;2.23;;;15.60;98.00;;;;;;10332730;28;20232;-66
2022/07/07 23:26:28;;;;;;;7.97;2.27;;;15.50;98.00;;;;;;10343501;28;20231;-65
2022/07/07 23:31:29;;;;;;;6.57;2.07;;;15.50;98.10;;;;;;10336251;28;20710;-64
2022/07/07 23:36:30;;;;;;;5.00;1.93;;;15.40;98.40;;;;;;10331570;28;20230;-65
2022/07/07 23:41:30;;;;;;;6.70;2.00;;;15.30;98.70;;;;;;10344131;28;20223;-65
2022/07/07 23:46:31;;;;;;;6.63;1.97;;;15.20;99.20;;;;;;10336676;28;20630;-66
2022/07/07 23:51:31;;;;;;;5.53;1.73;;;15.10;99.60;;;;;;10310786;28;20646;-65
2022/07/07 23:56:32;;;;;;;8.77;2.30;;;15.00;99.90;;;;;;10333876;28;20703;-64
